Time;durP1;ratioP1;P1;durP2;ratioP2;P2;SDS_P1;SDS_P2;PMS_P1;PMS_P2;Temp;Humidity;BMP_temperature;BMP_pressure;BME280_temperature;BME280_humidity;BME280_pressure;Samples;Min_cycle;Max_cycle;Signal;HPM_P1;HPM_P2
2022/09/18 00:02:17;;;;;;;59.97;40.40;;;26.00;99.90;;;;;;5033618;28;20113;-65
2022/09/18 00:04:43;;;;;;;21.40;11.50;;;25.90;99.90;;;;;;5033906;28;20056;-65
2022/09/18 00:07:10;;;;;;;17.17;6.53;;;25.90;99.90;;;;;;5033782;28;20021;-65
2022/09/18 00:09:37;;;;;;;42.58;30.95;;;25.90;99.90;;;;;;5033963;28;20422;-65
2022/09/18 00:12:04;;;;;;;12.65;6.35;;;25.90;99.90;;;;;;5034131;28;20448;-65
2022/09/18 00:14:30;;;;;;;13.15;4.72;;;25.80;99.90;;;;;;5033732;28;20018;-64
2022/09/18 00:16:57;;;;;;;15.82;5.13;;;25.80;99.90;;;;;;5034110;28;20511;-66
2022/09/18 00:19:23;;;;;;;9.93;4.60;;;25.70;99.90;;;;;;5033717;28;20021;-65
2022/09/18 00:21:51;;;;;;;4.93;3.92;;;25.80;99.90;;;;;;5033514;28;20434;-65
2022/09/18 00:24:19;;;;;;;19.00;10.10;;;25.70;99.90;;;;;;5033875;28;20028;-65
2022/09/18 00:26:46;;;;;;;13.73;10.57;;;25.80;99.90;;;;;;5033579;28;20481;-65
2022/09/18 00:29:14;;;;;;;4.50;3.78;;;25.70;99.90;;;;;;5033501;28;20492;-65
2022/09/18 00:31:41;;;;;;;14.35;8.57;;;25.70;99.90;;;;;;5033589;28;20075;-65
2022/09/18 00:34:11;;;;;;;10.50;4.93;;;25.70;99.90;;;;;;5033621;28;20535;-65
2022/09/18 00:36:38;;;;;;;7.32;3.35;;;25.80;99.90;;;;;;5033225;28;20025;-65
2022/09/18 00:39:06;;;;;;;5.35;2.88;;;25.80;99.90;;;;;;5033538;28;20033;-65
2022/09/18 00:41:36;;;;;;;6.40;3.45;;;25.80;99.90;;;;;;5033577;28;20031;-65
2022/09/18 00:44:08;;;;;;;6.18;3.25;;;25.70;99.90;;;;;;5033316;28;20045;-67
2022/09/18 00:46:36;;;;;;;8.98;3.90;;;25.70;99.90;;;;;;5033405;28;20026;-67
2022/09/18 00:49:14;;;;;;;20.75;18.55;;;25.70;99.90;;;;;;5045283;28;20032;-68
2022/09/18 00:51:44;;;;;;;11.38;7.93;;;25.80;99.90;;;;;;5048729;28;20048;-66
2022/09/18 00:54:15;;;;;;;8.48;4.68;;;25.80;99.90;;;;;;5053253;28;20021;-68
2022/09/18 00:56:43;;;;;;;7.60;4.35;;;25.80;99.90;;;;;;5052995;28;20442;-68
2022/09/18 00:59:13;;;;;;;7.07;4.43;;;25.80;99.90;;;;;;5052909;28;20364;-68
2022/09/18 01:01:40;;;;;;;8.45;4.45;;;25.90;99.90;;;;;;5053110;28;20033;-68
2022/09/18 01:04:11;;;;;;;7.95;4.65;;;25.90;99.90;;;;;;5052952;28;20092;-68
2022/09/18 01:06:40;;;;;;;21.03;12.67;;;26.00;99.90;;;;;;5052893;28;20036;-68
2022/09/18 01:09:15;;;;;;;135.65;102.18;;;26.10;99.90;;;;;;5052897;28;20455;-68
2022/09/18 01:12:04;;;;;;;95.68;68.28;;;26.20;99.90;;;;;;5052990;28;20060;-68
2022/09/18 01:14:41;;;;;;;19.85;13.63;;;26.40;99.90;;;;;;5054685;28;20031;-69
2022/09/18 01:17:14;;;;;;;13.10;10.63;;;26.50;99.90;;;;;;5056951;28;20427;-69
2022/09/18 01:19:46;;;;;;;20.17;15.77;;;26.70;99.90;;;;;;5056923;28;20025;-69
2022/09/18 01:22:18;;;;;;;32.00;23.17;;;26.80;99.90;;;;;;5057021;28;20017;-69
2022/09/18 01:24:47;;;;;;;26.92;17.48;;;27.00;99.90;;;;;;5057240;28;20025;-68
2022/09/18 01:27:53;;;;;;;26.48;16.77;;;27.10;99.90;;;;;;5056823;28;20021;-68
2022/09/18 01:30:20;;;;;;;28.25;21.40;;;27.20;99.90;;;;;;5002406;28;20047;-68
2022/09/18 01:32:50;;;;;;;35.83;21.02;;;27.40;99.90;;;;;;5056789;28;20058;-69
2022/09/18 01:35:21;;;;;;;26.27;18.58;;;27.50;99.90;;;;;;5056868;28;20505;-69
2022/09/18 01:38:01;;;;;;;22.02;17.48;;;27.50;99.90;;;;;;5056837;28;20059;-69
2022/09/18 01:40:34;;;;;;;19.35;14.82;;;27.50;99.90;;;;;;5056657;28;20027;-69
2022/09/18 01:43:05;;;;;;;17.33;14.57;;;27.50;99.90;;;;;;5056500;28;20105;-68
2022/09/18 01:45:38;;;;;;;16.52;12.73;;;27.60;99.90;;;;;;5056628;28;20053;-69
2022/09/18 01:48:07;;;;;;;16.88;13.30;;;27.60;99.90;;;;;;5056404;28;20033;-69
2022/09/18 01:50:41;;;;;;;110.70;87.53;;;27.60;99.90;;;;;;5056251;28;20045;-69
2022/09/18 01:53:14;;;;;;;235.65;165.43;;;27.70;99.90;;;;;;5056546;28;20032;-69
2022/09/18 01:55:44;;;;;;;28.73;20.73;;;27.80;99.90;;;;;;5056622;28;20074;-71
2022/09/18 01:58:17;;;;;;;93.32;63.50;;;27.90;99.90;;;;;;5056207;28;20424;-69
2022/09/18 02:00:53;;;;;;;90.00;66.03;;;27.90;99.90;;;;;;5056062;28;20025;-70
2022/09/18 02:03:36;;;;;;;71.88;54.35;;;28.10;99.90;;;;;;5056259;28;20024;-68
2022/09/18 02:06:12;;;;;;;24.00;17.75;;;28.10;99.90;;;;;;5056096;28;20021;-68
2022/09/18 02:08:42;;;;;;;19.17;15.05;;;28.20;99.90;;;;;;5056043;28;20094;-69
2022/09/18 02:11:13;;;;;;;16.08;13.23;;;28.20;99.90;;;;;;5056075;28;20434;-69
2022/09/18 02:14:04;;;;;;;18.13;14.52;;;28.30;99.90;;;;;;5056104;28;20081;-69
2022/09/18 02:16:31;;;;;;;16.08;13.05;;;28.40;99.90;;;;;;5045362;28;20407;-68
2022/09/18 02:19:07;;;;;;;18.10;13.18;;;28.50;99.90;;;;;;5055802;28;20127;-68
2022/09/18 02:21:36;;;;;;;16.05;13.25;;;28.60;99.90;;;;;;5055702;28;20055;-68
2022/09/18 02:24:07;;;;;;;16.83;12.23;;;28.60;99.90;;;;;;5043401;28;20361;-68
2022/09/18 02:26:36;;;;;;;15.35;12.75;;;28.60;99.90;;;;;;5035159;28;20549;-67
2022/09/18 02:29:06;;;;;;;42.72;16.10;;;28.60;99.90;;;;;;5035786;28;20041;-70
2022/09/18 02:31:36;;;;;;;42.47;14.30;;;28.60;99.90;;;;;;5035769;28;20121;-67
2022/09/18 02:34:02;;;;;;;32.15;15.63;;;28.60;99.90;;;;;;5035626;28;20068;-68
2022/09/18 02:36:38;;;;;;;27.98;21.27;;;28.60;99.90;;;;;;5035457;28;20040;-67
2022/09/18 02:39:16;;;;;;;25.50;19.15;;;28.50;99.90;;;;;;5035625;28;20030;-68
2022/09/18 02:41:47;;;;;;;26.52;20.55;;;28.60;99.90;;;;;;5035461;28;20045;-68
2022/09/18 02:44:18;;;;;;;31.35;21.50;;;28.70;99.90;;;;;;5035450;28;20029;-69
2022/09/18 02:46:53;;;;;;;41.70;28.10;;;28.80;99.90;;;;;;5035632;28;20036;-68
2022/09/18 02:49:22;;;;;;;41.40;30.23;;;28.80;99.90;;;;;;5049156;28;20051;-69
2022/09/18 02:52:10;;;;;;;41.28;34.05;;;28.90;99.90;;;;;;5055201;28;20080;-69
2022/09/18 02:54:48;;;;;;;23.60;16.08;;;29.00;99.90;;;;;;5055179;28;20029;-69
2022/09/18 02:57:28;;;;;;;25.52;17.73;;;29.30;99.90;;;;;;5055269;28;20032;-68
2022/09/18 02:59:58;;;;;;;22.00;13.82;;;29.50;99.90;;;;;;5055179;28;20602;-68
2022/09/18 03:02:25;;;;;;;16.13;13.13;;;29.60;99.90;;;;;;5054979;28;20037;-68
2022/09/18 03:04:52;;;;;;;21.13;14.75;;;29.70;99.90;;;;;;5054935;28;20450;-69
2022/09/18 03:07:19;;;;;;;19.00;13.95;;;29.80;99.90;;;;;;5055084;28;20539;-68
2022/09/18 03:09:45;;;;;;;20.42;14.48;;;29.80;99.90;;;;;;5055063;28;20017;-70
2022/09/18 03:12:13;;;;;;;19.98;13.77;;;29.90;99.90;;;;;;5054861;28;20120;-70
2022/09/18 03:14:39;;;;;;;20.60;14.60;;;29.90;99.90;;;;;;5054689;28;20036;-68
2022/09/18 03:17:06;;;;;;;19.17;14.73;;;29.90;99.90;;;;;;5054421;28;20025;-68
2022/09/18 03:19:33;;;;;;;20.83;14.52;;;29.90;99.90;;;;;;5054521;28;20025;-68
2022/09/18 03:21:59;;;;;;;117.88;82.03;;;30.00;99.90;;;;;;5054437;28;20028;-69
2022/09/18 03:24:26;;;;;;;55.58;38.13;;;30.00;99.90;;;;;;5054626;28;20466;-67
2022/09/18 03:26:53;;;;;;;157.18;111.88;;;30.10;99.90;;;;;;5054508;28;20147;-68
2022/09/18 03:29:19;;;;;;;30.38;22.75;;;30.10;99.90;;;;;;5054338;28;20028;-68
2022/09/18 03:31:46;;;;;;;57.92;42.42;;;30.20;99.90;;;;;;5054444;28;20475;-69
2022/09/18 03:34:12;;;;;;;33.17;25.83;;;30.20;99.90;;;;;;5054462;28;20025;-69
2022/09/18 03:36:39;;;;;;;25.45;15.55;;;30.50;99.90;;;;;;5054103;28;20483;-68
2022/09/18 03:39:05;;;;;;;71.22;52.80;;;30.50;99.90;;;;;;5053505;28;20021;-69
2022/09/18 03:41:32;;;;;;;294.77;231.13;;;30.50;99.90;;;;;;5054200;28;20430;-68
2022/09/18 03:43:58;;;;;;;55.35;42.67;;;30.40;99.90;;;;;;5053973;28;20032;-68
2022/09/18 03:46:25;;;;;;;117.07;89.38;;;30.40;99.90;;;;;;5054120;28;20483;-69
2022/09/18 03:48:52;;;;;;;84.95;61.47;;;30.30;99.90;;;;;;5054092;28;20059;-69
2022/09/18 03:51:20;;;;;;;149.70;97.45;;;30.30;99.90;;;;;;5053835;28;20099;-68
2022/09/18 03:53:47;;;;;;;169.02;101.68;;;30.30;99.90;;;;;;5054013;28;20029;-68
2022/09/18 03:56:14;;;;;;;147.77;84.50;;;30.30;99.90;;;;;;5053695;28;20021;-69
2022/09/18 03:58:41;;;;;;;244.68;137.07;;;30.40;99.90;;;;;;5053443;28;20071;-67
2022/09/18 04:01:08;;;;;;;274.98;155.48;;;30.50;99.90;;;;;;5053672;28;20025;-68
2022/09/18 04:03:35;;;;;;;161.38;116.43;;;30.70;99.90;;;;;;5053952;28;20057;-70
2022/09/18 04:06:01;;;;;;;404.05;305.20;;;30.60;99.90;;;;;;5053708;28;20017;-67
2022/09/18 04:08:28;;;;;;;186.93;131.63;;;30.60;99.90;;;;;;5053387;28;20463;-67
2022/09/18 04:10:54;;;;;;;179.45;130.48;;;30.60;99.90;;;;;;5036923;28;20041;-67
2022/09/18 04:13:21;;;;;;;162.10;109.45;;;30.70;99.90;;;;;;5020867;28;20021;-68
2022/09/18 04:15:49;;;;;;;133.75;93.45;;;30.80;99.90;;;;;;5013961;28;20493;-68
2022/09/18 04:18:16;;;;;;;84.30;58.22;;;31.00;99.90;;;;;;5013787;28;20034;-67
2022/09/18 04:20:43;;;;;;;463.20;337.83;;;31.00;99.90;;;;;;4997166;28;20025;-66
2022/09/18 04:23:13;;;;;;;60.40;45.70;;;31.00;99.90;;;;;;5024191;28;20026;-65
2022/09/18 04:25:42;;;;;;;40.47;32.63;;;31.10;99.90;;;;;;5013408;28;20033;-66
2022/09/18 04:28:09;;;;;;;408.23;336.40;;;31.10;99.90;;;;;;5013575;28;20025;-66
2022/09/18 04:30:36;;;;;;;483.90;406.45;;;31.10;99.90;;;;;;5013746;28;20049;-66
2022/09/18 04:33:04;;;;;;;1213.18;850.92;;;31.10;99.90;;;;;;5013772;28;20425;-66
2022/09/18 04:35:31;;;;;;;881.60;709.45;;;31.00;99.90;;;;;;5013522;28;20389;-66
2022/09/18 04:37:57;;;;;;;309.35;228.70;;;30.90;99.90;;;;;;5013915;28;20022;-67
2022/09/18 04:40:24;;;;;;;1142.85;823.85;;;30.90;99.90;;;;;;5013570;28;20022;-68
2022/09/18 04:42:50;;;;;;;879.80;676.63;;;30.80;99.90;;;;;;5013064;28;20022;-68
2022/09/18 04:45:17;;;;;;;401.92;283.48;;;30.70;99.90;;;;;;5013625;28;20385;-66
2022/09/18 04:47:46;;;;;;;759.72;531.30;;;30.80;99.90;;;;;;5013511;28;20204;-66
2022/09/18 04:50:13;;;;;;;720.42;502.20;;;30.80;99.90;;;;;;5012851;28;20048;-66
2022/09/18 04:52:40;;;;;;;313.10;198.23;;;30.70;99.90;;;;;;5013373;28;20014;-66
2022/09/18 04:55:07;;;;;;;564.70;408.83;;;30.80;99.90;;;;;;5013372;28;20033;-67
2022/09/18 04:57:36;;;;;;;94.53;52.85;;;30.90;99.90;;;;;;5013068;28;20048;-66
2022/09/18 05:00:05;;;;;;;453.60;359.95;;;31.00;99.90;;;;;;5013714;28;20050;-66
2022/09/18 05:02:32;;;;;;;443.48;333.65;;;31.00;99.90;;;;;;5013220;28;20029;-66
2022/09/18 05:04:58;;;;;;;380.52;246.35;;;31.10;99.90;;;;;;5013275;28;20026;-67
2022/09/18 05:07:25;;;;;;;330.27;206.57;;;31.20;99.90;;;;;;5013440;28;20100;-67
2022/09/18 05:09:53;;;;;;;285.05;193.85;;;31.40;99.90;;;;;;5013257;28;20046;-66
2022/09/18 05:12:20;;;;;;;179.32;120.43;;;31.40;99.90;;;;;;5013119;28;20018;-66
2022/09/18 05:14:47;;;;;;;67.32;45.33;;;31.50;99.90;;;;;;5013381;28;20018;-66
2022/09/18 05:17:13;;;;;;;35.88;25.17;;;31.60;99.90;;;;;;5013311;28;20022;-66
2022/09/18 05:19:40;;;;;;;175.00;129.57;;;31.60;99.90;;;;;;5012986;28;20476;-67
2022/09/18 05:22:06;;;;;;;86.43;62.85;;;31.60;99.90;;;;;;5013275;28;20022;-65
2022/09/18 05:24:33;;;;;;;455.08;296.17;;;31.70;99.90;;;;;;5013176;28;20384;-64
2022/09/18 05:26:59;;;;;;;242.70;195.10;;;31.70;99.90;;;;;;5012983;28;20025;-66
2022/09/18 05:29:26;;;;;;;266.90;215.77;;;31.90;99.90;;;;;;5013226;28;20026;-67
2022/09/18 05:31:52;;;;;;;66.10;50.63;;;32.00;99.90;;;;;;5013221;28;20501;-67
2022/09/18 05:34:19;;;;;;;122.00;84.72;;;32.10;99.90;;;;;;5012893;28;20025;-65
2022/09/18 05:36:46;;;;;;;458.48;302.85;;;32.20;99.90;;;;;;5013038;28;20029;-65
2022/09/18 05:39:12;;;;;;;466.95;272.70;;;32.30;99.90;;;;;;5022564;28;20060;-65
2022/09/18 05:41:39;;;;;;;407.92;214.40;;;32.20;99.90;;;;;;5014456;28;20026;-66
2022/09/18 05:44:05;;;;;;;392.95;218.57;;;32.10;99.90;;;;;;5012633;28;20034;-66
2022/09/18 05:46:32;;;;;;;384.42;235.65;;;32.00;99.90;;;;;;5012859;28;20392;-66
2022/09/18 05:48:58;;;;;;;235.57;144.57;;;32.00;99.90;;;;;;5013109;28;20024;-66
2022/09/18 05:51:26;;;;;;;127.70;73.13;;;32.10;99.90;;;;;;5012554;28;20050;-66
2022/09/18 05:53:52;;;;;;;379.35;220.95;;;32.00;99.90;;;;;;5023959;28;20030;-69
2022/09/18 05:56:18;;;;;;;44.92;31.90;;;32.10;99.90;;;;;;5027593;28;20029;-70
2022/09/18 05:58:45;;;;;;;195.43;119.18;;;32.20;99.90;;;;;;5032765;28;20018;-71
2022/09/18 06:01:13;;;;;;;144.98;91.70;;;32.20;99.90;;;;;;5033718;28;20022;-69
2022/09/18 06:03:40;;;;;;;44.85;32.42;;;32.20;99.90;;;;;;5035952;28;20033;-70
2022/09/18 06:06:07;;;;;;;24.02;18.95;;;32.40;99.90;;;;;;5036052;28;20026;-68
2022/09/18 06:08:34;;;;;;;49.13;38.47;;;32.40;99.90;;;;;;5032309;28;20034;-70
2022/09/18 06:11:02;;;;;;;63.15;42.67;;;32.30;99.90;;;;;;5025220;28;20109;-68
2022/09/18 06:13:28;;;;;;;229.35;129.27;;;32.20;99.90;;;;;;5016186;28;20443;-70
2022/09/18 06:15:56;;;;;;;154.82;88.50;;;32.10;99.90;;;;;;5017248;28;20077;-69
2022/09/18 06:18:23;;;;;;;62.63;40.75;;;32.10;99.90;;;;;;5036036;28;20057;-70
2022/09/18 06:20:55;;;;;;;144.82;78.03;;;32.00;99.90;;;;;;5038687;28;20029;-70
2022/09/18 06:23:23;;;;;;;27.80;19.55;;;31.90;99.90;;;;;;5051023;28;20025;-70
2022/09/18 06:26:08;;;;;;;148.10;84.60;;;31.90;99.90;;;;;;5054917;28;20029;-71
2022/09/18 06:28:35;;;;;;;39.47;27.25;;;31.90;99.90;;;;;;5053827;28;20028;-72
2022/09/18 06:31:03;;;;;;;56.88;37.05;;;31.90;99.90;;;;;;5055633;28;20450;-66
2022/09/18 06:33:31;;;;;;;43.63;30.25;;;31.90;99.90;;;;;;5036971;28;20041;-65
2022/09/18 06:35:59;;;;;;;187.18;98.95;;;31.90;99.90;;;;;;5023772;28;20030;-66
2022/09/18 06:38:26;;;;;;;202.23;121.45;;;31.90;99.90;;;;;;5032685;28;20037;-65
2022/09/18 06:40:53;;;;;;;48.25;30.63;;;31.90;99.90;;;;;;5028788;28;20388;-66
2022/09/18 06:43:20;;;;;;;76.28;50.35;;;31.80;99.90;;;;;;5029518;28;20096;-65
2022/09/18 06:45:50;;;;;;;229.90;124.50;;;31.70;99.90;;;;;;5024698;28;20072;-65
2022/09/18 06:48:17;;;;;;;296.30;166.90;;;31.60;99.90;;;;;;5015527;28;20571;-64
2022/09/18 06:50:44;;;;;;;98.85;57.75;;;31.50;99.90;;;;;;5015048;28;20058;-66
2022/09/18 06:53:10;;;;;;;74.57;42.85;;;31.50;99.90;;;;;;5026804;28;20033;-66
2022/09/18 06:55:37;;;;;;;67.07;41.80;;;31.40;99.90;;;;;;5035462;28;20033;-66
2022/09/18 06:58:03;;;;;;;59.10;38.17;;;31.40;99.90;;;;;;5035033;28;20064;-65
2022/09/18 07:00:30;;;;;;;117.57;70.72;;;31.40;99.90;;;;;;5035360;28;20056;-64
2022/09/18 07:02:58;;;;;;;118.55;68.57;;;31.30;99.90;;;;;;5027686;28;20026;-70
2022/09/18 07:05:29;;;;;;;42.95;28.15;;;31.20;99.90;;;;;;5051513;28;20382;-67
2022/09/18 07:07:56;;;;;;;45.80;28.63;;;31.20;99.90;;;;;;5053380;28;20032;-65
2022/09/18 07:10:23;;;;;;;36.50;25.17;;;31.10;99.90;;;;;;5048162;28;20074;-67
2022/09/18 07:12:55;;;;;;;35.75;26.38;;;31.00;99.90;;;;;;5050094;28;20061;-67
2022/09/18 07:15:22;;;;;;;;;;;30.90;99.90;;;;;;5036386;28;20121;-67
2022/09/18 07:17:48;;;;;;;25.20;14.15;;;30.60;99.90;;;;;;5053495;28;19913;-68
2022/09/18 07:20:15;;;;;;;26.40;12.43;;;30.10;99.90;;;;;;5051533;28;20574;-66
2022/09/18 07:22:42;;;;;;;19.85;12.15;;;29.80;99.90;;;;;;5048421;28;20028;-68
2022/09/18 07:25:09;;;;;;;24.27;14.23;;;29.70;99.90;;;;;;5044782;28;20026;-68
2022/09/18 07:27:36;;;;;;;28.17;15.70;;;29.60;99.90;;;;;;5024887;28;20167;-68
2022/09/18 07:30:03;;;;;;;35.33;23.00;;;29.60;99.90;;;;;;5032067;28;20108;-68
2022/09/18 07:32:29;;;;;;;47.92;33.33;;;29.70;99.90;;;;;;5034736;28;20018;-70
2022/09/18 07:34:56;;;;;;;31.63;22.15;;;29.70;99.90;;;;;;5034761;28;20025;-71
2022/09/18 07:37:22;;;;;;;30.38;19.52;;;29.60;99.90;;;;;;5034590;28;20022;-67
2022/09/18 07:39:49;;;;;;;25.30;19.02;;;29.60;99.90;;;;;;5034170;28;20021;-69
2022/09/18 07:42:16;;;;;;;30.17;17.88;;;29.50;99.90;;;;;;5034520;28;20107;-67
2022/09/18 07:44:42;;;;;;;33.22;16.98;;;29.60;99.90;;;;;;5034603;28;20018;-68
2022/09/18 07:47:10;;;;;;;41.47;23.13;;;29.60;99.90;;;;;;5033748;28;20083;-70
2022/09/18 07:49:37;;;;;;;117.18;65.50;;;29.70;99.90;;;;;;5011381;28;20103;-68
2022/09/18 07:52:04;;;;;;;117.35;63.17;;;29.80;99.90;;;;;;5029325;28;20029;-69
2022/09/18 07:54:31;;;;;;;105.00;56.70;;;29.80;99.90;;;;;;5045416;28;20146;-68
2022/09/18 07:56:58;;;;;;;62.70;39.63;;;29.90;99.90;;;;;;5048877;28;20043;-67
2022/09/18 07:59:24;;;;;;;61.55;37.55;;;29.90;99.90;;;;;;5053219;28;20028;-67
2022/09/18 08:01:54;;;;;;;37.05;24.40;;;29.90;99.90;;;;;;5053181;28;20024;-67
2022/09/18 08:04:21;;;;;;;30.08;21.55;;;30.00;99.90;;;;;;5053127;28;20475;-67
2022/09/18 08:06:53;;;;;;;40.67;27.45;;;29.90;99.90;;;;;;5053162;28;20060;-69
2022/09/18 08:09:21;;;;;;;47.53;30.23;;;29.90;99.90;;;;;;5047654;28;20033;-67
2022/09/18 08:11:50;;;;;;;45.45;28.40;;;30.00;99.90;;;;;;5052251;28;20021;-64
2022/09/18 08:14:16;;;;;;;35.38;24.02;;;30.00;99.90;;;;;;5053119;28;20115;-66
2022/09/18 08:16:43;;;;;;;36.33;23.83;;;30.10;99.90;;;;;;5047818;28;20029;-67
2022/09/18 08:19:09;;;;;;;35.72;22.70;;;30.10;99.90;;;;;;5052110;28;20024;-66
2022/09/18 08:21:36;;;;;;;32.95;22.42;;;30.10;99.90;;;;;;5050267;28;20020;-70
2022/09/18 08:24:03;;;;;;;28.02;20.35;;;30.10;99.90;;;;;;5046199;28;20025;-66
2022/09/18 08:26:30;;;;;;;23.48;19.05;;;30.20;99.90;;;;;;5046246;28;20176;-65
2022/09/18 08:28:56;;;;;;;23.58;17.20;;;30.20;99.90;;;;;;5049564;28;20032;-65
2022/09/18 08:31:23;;;;;;;30.83;21.13;;;30.10;99.90;;;;;;5049186;28;20035;-65
2022/09/18 08:33:49;;;;;;;28.85;18.83;;;30.10;99.90;;;;;;5041875;28;20039;-65
2022/09/18 08:36:16;;;;;;;26.02;19.48;;;30.20;99.90;;;;;;5045382;28;20052;-65
2022/09/18 08:38:42;;;;;;;26.77;18.83;;;30.20;99.90;;;;;;5050649;28;20025;-65
2022/09/18 08:41:14;;;;;;;23.10;17.77;;;30.20;99.90;;;;;;5051188;28;20021;-65
2022/09/18 08:43:44;;;;;;;31.08;20.40;;;30.20;99.90;;;;;;5051835;28;20023;-65
2022/09/18 08:46:15;;;;;;;47.70;29.55;;;30.20;99.90;;;;;;5046884;28;20027;-64
2022/09/18 08:48:58;;;;;;;44.35;31.27;;;30.20;99.90;;;;;;5049634;28;20108;-68
2022/09/18 08:51:33;;;;;;;37.05;25.13;;;30.30;99.90;;;;;;5051484;28;20048;-67
2022/09/18 08:54:15;;;;;;;43.10;26.88;;;30.30;99.90;;;;;;5046224;28;20040;-67
2022/09/18 08:56:42;;;;;;;31.90;22.17;;;30.30;99.90;;;;;;5046851;28;20270;-68
2022/09/18 08:59:17;;;;;;;29.17;19.98;;;30.30;99.90;;;;;;5042889;28;20471;-67
2022/09/18 09:02:07;;;;;;;27.55;19.33;;;30.30;99.90;;;;;;5040875;28;20036;-67
2022/09/18 09:04:35;;;;;;;30.40;21.55;;;30.20;99.90;;;;;;5046526;28;20034;-68
2022/09/18 09:07:04;;;;;;;33.30;22.95;;;30.30;99.90;;;;;;5048577;28;20074;-69
2022/09/18 09:09:36;;;;;;;38.60;21.02;;;30.20;99.90;;;;;;5046857;28;20383;-67
2022/09/18 09:12:05;;;;;;;;;;;30.30;99.90;;;;;;5052333;28;20079;-65
2022/09/18 09:14:52;;;;;;;36.78;21.90;;;30.30;99.90;;;;;;5047306;28;19991;-66
2022/09/18 09:17:21;;;;;;;32.65;21.38;;;30.30;99.90;;;;;;5049268;28;20017;-66
2022/09/18 09:19:53;;;;;;;26.42;21.65;;;30.30;99.90;;;;;;5051796;28;20082;-65
2022/09/18 09:22:48;;;;;;;30.08;22.50;;;30.30;99.90;;;;;;5051626;28;20021;-66
2022/09/18 09:25:21;;;;;;;50.42;31.50;;;30.30;99.90;;;;;;5042513;28;20083;-66
2022/09/18 09:27:58;;;;;;;52.35;35.22;;;30.30;99.90;;;;;;5031569;28;20392;-66
2022/09/18 09:30:25;;;;;;;37.75;27.63;;;30.30;99.90;;;;;;5045382;28;20566;-67
2022/09/18 09:32:56;;;;;;;37.85;25.55;;;30.30;99.90;;;;;;5029188;28;20032;-69
2022/09/18 09:35:26;;;;;;;38.73;26.73;;;30.30;99.90;;;;;;5053701;28;20028;-69
2022/09/18 09:37:53;;;;;;;49.72;32.83;;;30.30;99.90;;;;;;5051159;28;20250;-67
2022/09/18 09:40:31;;;;;;;36.03;24.70;;;30.20;99.90;;;;;;5056566;28;20013;-65
2022/09/18 09:43:02;;;;;;;56.92;35.30;;;30.10;99.90;;;;;;5056429;28;20467;-64
2022/09/18 09:45:51;;;;;;;71.95;41.42;;;30.10;99.90;;;;;;5056776;28;20044;-66
2022/09/18 09:48:29;;;;;;;74.00;43.15;;;30.10;99.90;;;;;;5047416;28;20036;-66
2022/09/18 09:51:04;;;;;;;46.88;32.28;;;30.10;99.90;;;;;;5055159;28;20099;-66
2022/09/18 09:53:31;;;;;;;63.58;37.28;;;30.00;99.90;;;;;;5035935;28;20026;-67
2022/09/18 09:55:59;;;;;;;55.97;38.08;;;30.00;99.90;;;;;;5037316;28;20021;-67
2022/09/18 09:58:32;;;;;;;56.42;36.45;;;29.90;99.90;;;;;;5056166;28;20051;-72
2022/09/18 10:01:08;;;;;;;50.22;35.45;;;30.00;99.90;;;;;;5056224;28;20029;-71
2022/09/18 10:03:41;;;;;;;58.92;37.97;;;30.00;99.90;;;;;;5056215;28;20025;-65
2022/09/18 10:06:13;;;;;;;68.63;46.40;;;30.00;99.90;;;;;;5056054;28;20147;-67
2022/09/18 10:08:46;;;;;;;80.63;50.00;;;30.00;99.90;;;;;;5056134;28;20032;-66
2022/09/18 10:11:13;;;;;;;79.25;49.40;;;30.00;99.90;;;;;;5055958;28;20025;-67
2022/09/18 10:13:47;;;;;;;76.07;45.65;;;30.00;99.90;;;;;;5056132;28;20031;-67
2022/09/18 10:16:32;;;;;;;58.92;39.88;;;30.00;99.90;;;;;;5055904;28;20032;-67
2022/09/18 10:18:59;;;;;;;61.95;43.67;;;30.00;99.90;;;;;;5055852;28;20116;-66
2022/09/18 10:21:33;;;;;;;65.13;45.97;;;30.00;99.90;;;;;;5055875;28;20029;-66
2022/09/18 10:24:05;;;;;;;67.55;47.13;;;30.00;99.90;;;;;;5042161;28;20028;-67
2022/09/18 10:26:38;;;;;;;74.53;49.42;;;30.00;99.90;;;;;;5032569;28;20138;-68
2022/09/18 10:29:05;;;;;;;65.22;47.10;;;30.00;99.90;;;;;;5048301;28;20038;-69
2022/09/18 10:31:37;;;;;;;69.53;47.92;;;30.00;99.90;;;;;;5057186;28;20552;-67
2022/09/18 10:34:24;;;;;;;82.60;49.72;;;30.00;99.90;;;;;;5056378;28;20041;-68
2022/09/18 10:36:51;;;;;;;64.95;43.60;;;30.00;99.90;;;;;;5050920;28;20039;-67
2022/09/18 10:39:28;;;;;;;62.25;43.38;;;29.90;99.90;;;;;;5057567;28;20335;-68
2022/09/18 10:42:00;;;;;;;66.72;44.40;;;29.90;99.90;;;;;;5047915;28;20418;-66
2022/09/18 10:44:46;;;;;;;66.15;42.15;;;29.80;99.90;;;;;;5054770;28;20086;-66
2022/09/18 10:47:17;;;;;;;60.35;44.17;;;29.80;99.90;;;;;;5050568;28;20387;-67
2022/09/18 10:49:49;;;;;;;87.68;57.67;;;29.90;99.90;;;;;;5056940;28;20520;-65
2022/09/18 10:52:17;;;;;;;85.25;58.10;;;29.80;99.90;;;;;;5057199;28;20391;-65
2022/09/18 10:55:06;;;;;;;92.28;58.97;;;29.80;99.90;;;;;;5057382;28;20025;-65
2022/09/18 10:57:36;;;;;;;91.65;59.83;;;29.70;99.90;;;;;;5045367;28;20044;-65
2022/09/18 11:00:23;;;;;;;105.00;68.38;;;29.70;99.90;;;;;;5056849;28;20025;-65
2022/09/18 11:02:53;;;;;;;109.80;67.80;;;29.70;99.90;;;;;;5013689;28;20136;-66
2022/09/18 11:05:22;;;;;;;85.88;56.58;;;29.70;99.90;;;;;;5054313;28;20372;-65
2022/09/18 11:07:54;;;;;;;77.82;53.78;;;29.70;99.90;;;;;;5054163;28;20025;-65
2022/09/18 11:10:25;;;;;;;81.13;54.97;;;29.70;99.90;;;;;;5042786;28;20426;-65
2022/09/18 11:12:57;;;;;;;85.97;57.83;;;29.70;99.90;;;;;;5052439;28;20028;-64
2022/09/18 11:15:30;;;;;;;90.22;60.80;;;29.60;99.90;;;;;;5053877;28;20262;-63
2022/09/18 11:18:00;;;;;;;93.07;65.63;;;29.60;99.90;;;;;;5049111;28;20024;-63
2022/09/18 11:20:33;;;;;;;99.32;67.97;;;29.50;99.90;;;;;;5053731;28;20021;-62
2022/09/18 11:23:04;;;;;;;95.82;63.28;;;29.40;99.90;;;;;;5049520;28;20053;-61
2022/09/18 11:25:31;;;;;;;94.00;60.95;;;29.40;99.90;;;;;;5053685;28;20519;-61
2022/09/18 11:27:59;;;;;;;79.43;53.25;;;29.30;99.90;;;;;;5046208;28;20024;-63
2022/09/18 11:30:30;;;;;;;77.75;50.28;;;29.30;99.90;;;;;;5051066;28;20028;-62
2022/09/18 11:33:01;;;;;;;70.90;48.45;;;29.30;99.90;;;;;;5048590;28;20017;-64
2022/09/18 11:35:30;;;;;;;66.55;47.05;;;29.30;99.90;;;;;;5053327;28;20044;-64
2022/09/18 11:38:05;;;;;;;74.53;47.10;;;29.30;99.90;;;;;;5053490;28;20017;-64
2022/09/18 11:40:51;;;;;;;130.77;73.78;;;29.30;99.90;;;;;;5053259;28;20052;-63
2022/09/18 11:43:22;;;;;;;130.65;77.40;;;29.30;99.90;;;;;;5048200;28;20060;-63
2022/09/18 11:45:53;;;;;;;72.45;46.50;;;29.20;99.90;;;;;;5052736;28;20032;-63
2022/09/18 11:48:26;;;;;;;136.57;84.10;;;29.10;99.90;;;;;;5049089;28;20383;-63
2022/09/18 11:50:56;;;;;;;41.58;23.67;;;28.90;99.90;;;;;;5044709;28;20045;-64
2022/09/18 11:53:28;;;;;;;151.27;66.95;;;28.80;99.90;;;;;;5042624;28;20087;-64
2022/09/18 11:55:59;;;;;;;101.70;43.87;;;28.70;99.90;;;;;;5051611;28;20025;-64
2022/09/18 11:58:51;;;;;;;73.55;32.58;;;28.70;99.90;;;;;;5050745;28;20399;-65
2022/09/18 12:01:20;;;;;;;;;;;28.70;99.90;;;;;;5002014;28;20489;-65
2022/09/18 12:03:53;;;;;;;46.53;21.13;;;28.60;99.90;;;;;;5052095;28;19909;-65
2022/09/18 12:06:27;;;;;;;23.58;12.23;;;28.60;99.90;;;;;;5052907;28;20383;-65
2022/09/18 12:09:22;;;;;;;21.08;11.30;;;28.50;99.90;;;;;;5050921;28;20032;-65
2022/09/18 12:11:57;;;;;;;22.90;12.68;;;28.60;99.90;;;;;;5043992;28;20033;-65
2022/09/18 12:14:43;;;;;;;24.98;12.52;;;28.50;99.90;;;;;;5049627;28;20033;-66
2022/09/18 12:17:13;;;;;;;18.55;11.93;;;28.50;99.90;;;;;;5052583;28;20078;-63
2022/09/18 12:19:48;;;;;;;30.20;12.30;;;28.50;99.90;;;;;;5048078;28;20035;-64
2022/09/18 12:22:20;;;;;;;25.33;10.95;;;28.50;99.90;;;;;;5050723;28;20028;-61
2022/09/18 12:24:46;;;;;;;;;;;28.50;99.90;;;;;;5053104;28;20100;-62
2022/09/18 12:27:20;;;;;;;20.08;12.07;;;28.40;99.90;;;;;;5052092;28;19912;-62
2022/09/18 12:29:56;;;;;;;28.10;12.40;;;28.40;99.90;;;;;;5049215;28;20021;-62
2022/09/18 12:32:27;;;;;;;25.23;14.02;;;28.30;99.90;;;;;;5048109;28;20032;-62
2022/09/18 12:35:09;;;;;;;28.92;14.20;;;28.40;99.90;;;;;;5051885;28;20020;-64
2022/09/18 12:37:47;;;;;;;26.83;13.10;;;28.50;99.90;;;;;;5040363;28;20031;-65
2022/09/18 12:40:36;;;;;;;23.80;12.65;;;28.30;99.90;;;;;;5041799;28;20032;-65
2022/09/18 12:43:08;;;;;;;29.73;15.32;;;28.30;99.90;;;;;;4998456;28;20132;-65